Time;durP1;ratioP1;P1;durP2;ratioP2;P2;SDS_P1;SDS_P2;PMS_P1;PMS_P2;Temp;Humidity;BMP_temperature;BMP_pressure;BME280_temperature;BME280_humidity;BME280_pressure;Samples;Min_cycle;Max_cycle;Signal;HPM_P1;HPM_P2
2023/03/29 00:09:55;;;;;;;984.95;906.03;;;;;;;21.31;42.41;101106.78;20542056;28;20130;-76
2023/03/29 00:19:56;;;;;;;1004.45;924.55;;;;;;;21.27;42.54;101105.31;20537050;28;20037;-83
2023/03/29 00:29:56;;;;;;;993.38;914.03;;;;;;;21.26;42.05;101117.66;20543488;28;20055;-84
2023/03/29 00:39:57;;;;;;;974.95;896.58;;;;;;;21.24;41.98;101126.59;20545471;28;20396;-78
2023/03/29 00:50:03;;;;;;;988.92;909.88;;;;;;;21.23;42.13;101125.75;20549865;28;20047;-77
2023/03/29 01:00:08;;;;;;;996.05;916.60;;;;;;;21.22;42.02;101121.41;20542796;28;20062;-81
2023/03/29 01:10:22;;;;;;;970.55;892.50;;;;;;;21.18;41.97;101103.28;20533311;28;20045;-83
2023/03/29 01:21:06;;;;;;;967.25;889.35;;;;;;;21.17;42.34;101096.34;20537237;28;20051;-77
2023/03/29 01:31:11;;;;;;;957.17;880.10;;;;;;;21.18;42.13;101084.84;20538364;28;20062;-83
2023/03/29 01:41:12;;;;;;;982.28;903.53;;;;;;;21.14;42.06;101072.81;20539769;28;20035;-78
2023/03/29 01:51:31;;;;;;;957.85;880.55;;;;;;;21.11;42.15;101076.50;20552338;28;20206;-83
2023/03/29 02:01:37;;;;;;;962.95;885.47;;;;;;;21.10;42.02;101083.59;20547662;28;20125;-79
2023/03/29 02:11:41;;;;;;;969.50;891.67;;;;;;;21.06;42.29;101100.50;20555270;28;20054;-80
2023/03/29 02:21:50;;;;;;;967.25;889.72;;;;;;;21.06;42.08;101097.03;20547260;28;20043;-79
2023/03/29 02:31:54;;;;;;;968.13;890.47;;;;;;;21.04;42.13;101101.56;20534858;28;20035;-82
2023/03/29 02:41:56;;;;;;;965.35;887.83;;;;;;;21.01;42.12;101099.97;20543856;28;20403;-80
2023/03/29 02:52:06;;;;;;;973.45;895.55;;;;;;;21.00;42.17;101100.91;20540271;28;20049;-80
2023/03/29 03:02:06;;;;;;;938.60;862.40;;;;;;;20.99;42.03;101109.75;20534802;28;20046;-82
2023/03/29 03:12:07;;;;;;;974.05;895.97;;;;;;;20.97;41.87;101114.28;20532894;28;20038;-80
2023/03/29 03:22:08;;;;;;;969.28;891.72;;;;;;;20.94;41.74;101119.75;20533248;28;20150;-76
2023/03/29 03:32:11;;;;;;;978.92;900.95;;;;;;;20.92;41.88;101127.75;20514916;28;20058;-79
2023/03/29 03:42:11;;;;;;;989.70;910.83;;;;;;;20.90;42.10;101119.09;20520870;28;20043;-79
2023/03/29 03:52:12;;;;;;;991.45;912.67;;;;;;;20.89;41.91;101121.84;20536182;28;20043;-80
2023/03/29 04:02:12;;;;;;;995.70;916.83;;;;;;;20.87;42.28;101118.44;20541770;28;20131;-80
2023/03/29 04:12:12;;;;;;;985.58;907.22;;;;;;;20.87;41.93;101129.84;20542418;28;20058;-79
2023/03/29 04:22:13;;;;;;;1005.15;925.70;;;;;;;20.95;41.79;101130.16;20545430;28;20078;-79
2023/03/29 04:32:13;;;;;;;979.25;900.80;;;;;;;21.03;41.84;101124.41;20540805;28;20047;-77
2023/03/29 04:42:14;;;;;;;986.13;906.97;;;;;;;21.16;41.75;101126.25;20540766;28;20042;-81
2023/03/29 04:52:15;;;;;;;987.00;907.72;;;;;;;21.23;42.59;101123.09;20533900;28;20043;-77
2023/03/29 05:02:15;;;;;;;1047.78;965.05;;;;;;;21.36;42.97;101133.69;20516742;28;20090;-78
2023/03/29 05:12:17;;;;;;;1029.38;947.03;;;;;;;21.48;43.18;101139.06;20514416;28;20398;-80
2023/03/29 05:22:20;;;;;;;925.53;848.97;;;;;;;21.56;42.41;101139.41;20546328;28;20085;-78
2023/03/29 05:32:21;;;;;;;1042.90;960.03;;;;;;;21.62;42.63;101138.16;20536121;28;20529;-80
2023/03/29 05:42:22;;;;;;;1089.15;999.90;;;;;;;21.66;42.89;101142.31;20508304;28;22772;-74
2023/03/29 05:52:23;;;;;;;1164.72;999.90;;;;;;;21.68;42.26;101154.44;20523625;28;20037;-77
2023/03/29 06:02:25;;;;;;;1158.72;999.90;;;;;;;21.65;41.44;101156.44;20510938;28;20047;-79
2023/03/29 06:12:25;;;;;;;1158.57;999.90;;;;;;;21.48;37.37;101158.34;20491931;28;20058;-75
2023/03/29 06:22:26;;;;;;;1159.63;999.90;;;;;;;21.61;39.58;101163.69;20515250;28;20043;-75
2023/03/29 06:32:27;;;;;;;1156.78;999.90;;;;;;;21.66;40.45;101177.41;20526271;28;20051;-74
2023/03/29 06:42:27;;;;;;;1159.13;999.90;;;;;;;21.70;40.15;101172.75;20520067;28;20047;-75
2023/03/29 06:52:28;;;;;;;1163.07;999.90;;;;;;;21.73;40.51;101180.47;20498536;28;20157;-74
2023/03/29 07:02:29;;;;;;;1161.03;999.90;;;;;;;21.76;40.80;101180.25;20514161;28;20493;-75
2023/03/29 07:12:30;;;;;;;1158.78;999.90;;;;;;;21.80;40.63;101194.94;20520467;28;20050;-75
2023/03/29 07:22:31;;;;;;;813.80;744.28;;;;;;;21.83;40.23;101207.06;20522485;28;20039;-74
2023/03/29 07:32:32;;;;;;;761.58;695.67;;;;;;;21.84;40.79;101206.13;20517689;28;20054;-75
2023/03/29 07:42:37;;;;;;;725.65;662.25;;;;;;;21.87;40.47;101219.09;20534874;28;20509;-75
2023/03/29 07:52:38;;;;;;;740.03;675.63;;;;;;;21.88;40.23;101218.97;20548223;28;20104;-75
2023/03/29 08:02:39;;;;;;;731.15;667.40;;;;;;;21.89;40.61;101223.31;20546941;28;20039;-75
2023/03/29 08:12:40;;;;;;;707.08;645.08;;;;;;;21.88;40.06;101215.50;20548386;28;20514;-75
2023/03/29 08:22:41;;;;;;;733.40;669.55;;;;;;;21.88;40.30;101204.97;20540149;28;20044;-75
2023/03/29 08:32:41;;;;;;;735.22;671.15;;;;;;;21.89;40.28;101211.94;20535375;28;20046;-74
2023/03/29 08:42:51;;;;;;;698.30;636.85;;;;;;;21.85;39.83;101198.09;20536716;28;20044;-75
2023/03/29 08:52:59;;;;;;;722.72;659.45;;;;;;;21.81;39.88;101191.31;20529004;28;20039;-74
2023/03/29 09:03:01;;;;;;;703.05;641.30;;;;;;;21.83;39.65;101189.44;20528640;28;20580;-75
2023/03/29 09:13:16;;;;;;;725.65;662.35;;;;;;;21.83;39.14;101175.44;20535564;28;20054;-74
2023/03/29 09:23:27;;;;;;;729.53;666.08;;;;;;;21.80;38.92;101152.75;20530339;28;20050;-74
2023/03/29 09:33:41;;;;;;;1116.38;999.90;;;;;;;19.59;23.87;101154.22;20523039;28;20521;-74
2023/03/29 09:43:43;;;;;;;1131.80;999.90;;;;;;;20.60;27.69;101146.41;20530549;28;20407;-73
2023/03/29 09:53:44;;;;;;;1139.93;999.90;;;;;;;20.94;31.08;101136.38;20527265;28;20099;-74
2023/03/29 10:03:52;;;;;;;1152.53;999.90;;;;;;;21.19;34.09;101129.53;20542055;28;20070;-74
2023/03/29 10:13:59;;;;;;;1151.70;999.90;;;;;;;21.36;34.60;101123.16;20575161;28;20035;-74
2023/03/29 10:24:01;;;;;;;1156.07;999.90;;;;;;;21.47;35.42;101104.00;20561736;28;24118;-75
2023/03/29 10:34:05;;;;;;;1155.83;999.90;;;;;;;21.60;36.41;101093.47;20544320;28;20047;-73
2023/03/29 10:44:05;;;;;;;1164.30;999.90;;;;;;;21.71;36.66;101080.41;20523756;28;20055;-74
2023/03/29 10:54:13;;;;;;;1167.60;999.90;;;;;;;21.81;36.45;101072.69;20517741;28;20053;-73
2023/03/29 11:04:40;;;;;;;1172.38;999.90;;;;;;;21.91;36.80;101055.31;20517756;28;20051;-74
2023/03/29 11:14:46;;;;;;;1170.18;999.90;;;;;;;22.02;37.45;101049.28;20501530;28;20043;-74
2023/03/29 11:24:49;;;;;;;1172.70;999.90;;;;;;;22.12;37.08;101045.97;20516284;28;20568;-74
2023/03/29 11:35:08;;;;;;;1177.38;999.90;;;;;;;22.24;37.21;101031.94;20507547;28;20427;-76
2023/03/29 11:45:17;;;;;;;1181.90;999.90;;;;;;;22.33;37.35;101025.97;20439665;28;20050;-74
2023/03/29 11:55:25;;;;;;;1175.93;999.90;;;;;;;22.33;37.33;101007.50;20446114;28;20073;-74
2023/03/29 12:05:26;;;;;;;1192.78;999.90;;;;;;;22.46;37.17;101007.50;20451788;28;20086;-74
2023/03/29 12:15:42;;;;;;;1194.93;999.90;;;;;;;22.53;37.25;100992.91;20473860;28;20051;-74
2023/03/29 12:25:51;;;;;;;1173.50;999.90;;;;;;;22.59;37.36;100981.03;20477300;28;20424;-74
2023/03/29 12:35:57;;;;;;;1216.18;999.90;;;;;;;22.66;37.35;100968.22;20501998;28;20046;-74
2023/03/29 12:46:06;;;;;;;1193.75;999.90;;;;;;;22.72;37.27;100957.22;20567314;28;20137;-72
2023/03/29 12:56:18;;;;;;;1178.70;999.90;;;;;;;22.78;37.04;100945.34;20546412;28;20513;-76
2023/03/29 13:06:49;;;;;;;1206.50;999.90;;;;;;;22.81;37.16;100961.81;20547251;28;20634;-76
2023/03/29 13:16:50;;;;;;;1200.07;999.90;;;;;;;22.79;37.01;100949.66;20578409;28;20129;-76
2023/03/29 13:27:01;;;;;;;1197.63;999.90;;;;;;;22.82;37.32;100930.97;20555695;28;20031;-76
2023/03/29 13:37:23;;;;;;;1186.40;999.90;;;;;;;22.82;37.30;100926.50;20546642;28;20047;-76
2023/03/29 13:47:24;;;;;;;1194.85;999.90;;;;;;;22.80;37.47;100917.88;20523885;28;20051;-75
2023/03/29 13:57:33;;;;;;;1195.35;999.90;;;;;;;22.84;37.34;100900.84;20522698;28;20138;-74
2023/03/29 14:07:37;;;;;;;1193.70;999.90;;;;;;;22.85;37.40;100899.88;20534589;28;20142;-73
2023/03/29 14:17:38;;;;;;;1190.85;999.90;;;;;;;22.88;37.57;100898.81;20577605;28;20043;-74
2023/03/29 14:27:40;;;;;;;1192.43;999.90;;;;;;;22.90;37.62;100875.78;20520550;28;20372;-75
2023/03/29 14:37:41;;;;;;;1191.80;999.90;;;;;;;22.83;37.75;100878.03;20517768;28;20442;-75
2023/03/29 14:47:43;;;;;;;1186.35;999.90;;;;;;;22.75;37.57;100866.38;20526382;28;20047;-75
2023/03/29 14:57:46;;;;;;;1182.78;999.90;;;;;;;22.62;38.57;100874.38;20516147;28;20062;-74
2023/03/29 15:07:46;;;;;;;1181.22;999.90;;;;;;;22.53;37.54;100873.28;20544942;28;20047;-73
2023/03/29 15:17:47;;;;;;;1184.40;999.90;;;;;;;22.49;37.75;100871.84;20545977;28;20093;-72
2023/03/29 15:27:53;;;;;;;1184.57;999.90;;;;;;;22.43;37.00;100865.22;20513856;28;20066;-71
2023/03/29 15:37:53;;;;;;;1182.97;999.90;;;;;;;22.44;36.59;100864.25;20512450;28;20061;-71
2023/03/29 15:47:54;;;;;;;1182.40;999.90;;;;;;;22.45;37.13;100841.34;20501584;28;20054;-72
2023/03/29 15:57:56;;;;;;;1182.20;999.90;;;;;;;22.35;38.50;100841.16;20499246;28;20384;-71
2023/03/29 16:07:57;;;;;;;;;;;;;;;22.15;35.38;100832.13;20517239;28;20046;-72
2023/03/29 16:17:59;;;;;;;1167.97;999.90;;;;;;;21.91;31.25;100831.19;20527454;28;19922;-74
2023/03/29 16:28:00;;;;;;;1164.38;999.90;;;;;;;21.85;32.29;100821.09;20506552;28;20086;-71
2023/03/29 16:38:00;;;;;;;1163.75;999.90;;;;;;;21.85;32.54;100807.06;20519159;28;20047;-72
2023/03/29 16:48:01;;;;;;;1165.35;999.90;;;;;;;21.88;33.63;100806.84;20516424;28;20047;-72
2023/03/29 16:58:02;;;;;;;1163.63;999.90;;;;;;;21.91;36.36;100814.53;20518375;28;20570;-73
2023/03/29 17:08:03;;;;;;;1163.80;999.90;;;;;;;21.94;37.48;100811.66;20519209;28;20055;-73
2023/03/29 17:18:04;;;;;;;1166.38;999.90;;;;;;;21.85;37.82;100807.06;20522853;28;20086;-74
2023/03/29 17:28:05;;;;;;;1162.95;999.90;;;;;;;21.87;37.87;100808.66;20512557;28;20538;-73
2023/03/29 17:38:05;;;;;;;1162.13;999.90;;;;;;;21.89;37.54;100822.53;20513471;28;20054;-77
2023/03/29 17:48:06;;;;;;;1164.65;999.90;;;;;;;21.94;39.73;100835.41;20520567;28;20051;-75
2023/03/29 17:58:16;;;;;;;1164.53;999.90;;;;;;;21.95;39.31;100834.44;20519038;28;20154;-75
2023/03/29 18:08:16;;;;;;;1168.00;999.90;;;;;;;22.01;39.96;100849.81;20520330;28;20046;-77
2023/03/29 18:18:18;;;;;;;1163.18;999.90;;;;;;;22.03;40.98;100854.97;20504469;28;20121;-75
2023/03/29 18:28:19;;;;;;;1165.97;999.90;;;;;;;22.05;41.14;100863.63;20513176;28;20286;-73
2023/03/29 18:38:22;;;;;;;1170.70;999.90;;;;;;;22.08;41.82;100868.66;20503374;28;20051;-76
2023/03/29 18:48:23;;;;;;;1178.70;999.90;;;;;;;22.11;42.14;100870.25;20532851;28;20070;-76
2023/03/29 18:58:24;;;;;;;1169.45;999.90;;;;;;;22.14;45.34;100865.59;20521279;28;22156;-77
2023/03/29 19:08:25;;;;;;;1181.38;999.90;;;;;;;22.16;46.39;100870.75;20514370;28;21474;-75
2023/03/29 19:18:26;;;;;;;1196.63;999.90;;;;;;;22.15;46.81;100869.88;20527602;28;20047;-78
2023/03/29 19:28:28;;;;;;;1195.68;999.90;;;;;;;22.07;45.01;100870.47;20544299;28;20041;-77
2023/03/29 19:38:30;;;;;;;1182.73;999.90;;;;;;;22.05;44.40;100879.44;20557212;28;20042;-76
2023/03/29 19:48:30;;;;;;;1170.22;999.90;;;;;;;22.02;44.80;100879.66;20529197;28;20426;-78
2023/03/29 19:58:31;;;;;;;1168.20;999.90;;;;;;;22.00;45.33;100873.66;20535553;28;20224;-76
2023/03/29 20:08:32;;;;;;;1166.33;999.90;;;;;;;21.97;45.95;100871.25;20537083;28;20085;-78
2023/03/29 20:18:32;;;;;;;1168.00;999.90;;;;;;;21.95;45.67;100863.44;20536020;28;20264;-77
2023/03/29 20:28:36;;;;;;;1167.45;999.90;;;;;;;21.92;45.91;100855.75;20537416;28;20097;-77
2023/03/29 20:38:36;;;;;;;1167.45;999.90;;;;;;;21.88;45.81;100849.03;20541230;28;20133;-78
2023/03/29 20:48:37;;;;;;;1166.15;999.90;;;;;;;21.86;45.87;100843.88;20522629;28;20070;-77
2023/03/29 20:58:40;;;;;;;1163.28;999.90;;;;;;;21.85;45.93;100846.59;20539758;28;20574;-76
2023/03/29 21:08:44;;;;;;;1166.70;999.90;;;;;;;21.81;45.70;100834.63;20530957;28;20043;-76
2023/03/29 21:18:44;;;;;;;1164.40;999.90;;;;;;;21.81;45.27;100835.44;20538302;28;20039;-77
2023/03/29 21:28:47;;;;;;;1162.50;999.90;;;;;;;21.82;45.06;100839.75;20517467;28;20506;-76
2023/03/29 21:38:53;;;;;;;1161.03;999.90;;;;;;;21.82;44.69;100836.28;20532022;28;20289;-74
2023/03/29 21:48:53;;;;;;;1168.28;999.90;;;;;;;21.79;45.12;100832.09;20547047;28;20125;-75
2023/03/29 21:58:56;;;;;;;1162.05;999.90;;;;;;;21.75;45.18;100823.56;20538123;28;20122;-76
2023/03/29 22:08:59;;;;;;;1161.40;999.90;;;;;;;21.71;45.18;100824.72;20539779;28;20130;-76
2023/03/29 22:19:00;;;;;;;1161.95;999.90;;;;;;;21.70;45.03;100830.13;20539548;28;21797;-75
2023/03/29 22:29:02;;;;;;;1163.07;999.90;;;;;;;21.65;44.88;100826.97;20531812;28;20066;-76
2023/03/29 22:39:03;;;;;;;1161.00;999.90;;;;;;;21.65;45.29;100819.06;20539143;28;20077;-76
2023/03/29 22:49:05;;;;;;;1161.68;999.90;;;;;;;21.69;44.90;100842.47;20547362;28;20047;-77
2023/03/29 22:59:05;;;;;;;1161.03;999.90;;;;;;;21.64;44.63;100847.25;20541243;28;21140;-76
2023/03/29 23:09:06;;;;;;;1160.05;999.90;;;;;;;21.64;45.03;100835.84;20535496;28;20130;-77
2023/03/29 23:19:07;;;;;;;1159.40;999.90;;;;;;;21.62;45.15;100832.47;20537518;28;20083;-76
2023/03/29 23:29:07;;;;;;;1158.65;999.90;;;;;;;21.57;45.17;100835.44;20535377;28;20055;-76
2023/03/29 23:39:08;;;;;;;1158.85;999.90;;;;;;;21.55;44.71;100835.50;20534409;28;20047;-76
2023/03/29 23:49:09;;;;;;;1159.57;999.90;;;;;;;21.56;44.77;100834.59;20514798;28;20051;-76
2023/03/29 23:59:09;;;;;;;1159.43;999.90;;;;;;;21.56;44.84;100839.00;20512479;28;20038;-76
